Decoded Metar for KHUA (REDSTONE in AL, USA) (IATA:HUA) | Meteo·Mobile Aviation Weather
aviador You're here:

KHUA Decoded Metar

REDSTONE in AL, USA
Report Time2018-10-22 10:58:00
UTC Time2018-10-22 11:04:16
Flight Rules vfr VFR
WindCalm
Visibility9999 m
Phenomena:N/A
Clouds:N/A
CeilingNone
Temp02°C (ISA -12)
Dew Point02°C (100% RH)
AAT0.3°C
QNH1025 hPa
Density Alt-1,037 ft
Elevation686 ft
Report Wrong Elevation
Raw Report
KHUA 221058Z AUTO 00000KT 7SM CLR 02/02 A3026 RMK AO2 SLP251
T00210015=

Extra information for KHUA:More info

Metar Taf Metar & Taf Last 4 Metars F.Rules Stats Wind Profile Meteogram Temp Stats Airport Information Weather charts Add Link Nearby VenuesMetar ALERT Operation Metar Decoded Social comments

AIRNAV info for KHUA